Time;durP1;ratioP1;P1;durP2;ratioP2;P2;SDS_P1;SDS_P2;PMS_P1;PMS_P2;Temp;Humidity;BMP_temperature;BMP_pressure;BME280_temperature;BME280_humidity;BME280_pressure;Samples;Min_cycle;Max_cycle;Signal;HPM_P1;HPM_P2
2021/12/20 00:00:27;;;;;;;38.43;30.27;;;4.70;99.90;;;;;;4954389;29;20449;-76
2021/12/20 00:02:56;;;;;;;41.87;30.60;;;4.70;99.90;;;;;;4954310;29;20515;-77
2021/12/20 00:05:23;;;;;;;44.63;32.30;;;4.70;99.90;;;;;;4954116;28;20500;-78
2021/12/20 00:07:49;;;;;;;36.60;29.83;;;4.70;99.90;;;;;;4954515;29;20455;-77
2021/12/20 00:10:17;;;;;;;35.30;30.03;;;4.80;99.90;;;;;;4954209;28;20486;-76
2021/12/20 00:12:44;;;;;;;37.57;31.03;;;4.80;99.90;;;;;;4954596;29;20471;-77
2021/12/20 00:15:11;;;;;;;43.07;30.63;;;5.00;99.90;;;;;;4954008;28;20449;-78
2021/12/20 00:17:39;;;;;;;35.33;28.20;;;4.90;99.90;;;;;;4954351;28;20461;-78
2021/12/20 00:20:07;;;;;;;39.27;30.00;;;4.80;99.90;;;;;;4953836;29;20461;-78
2021/12/20 00:22:34;;;;;;;41.60;28.37;;;4.70;99.90;;;;;;4954094;28;20472;-76
2021/12/20 00:25:01;;;;;;;36.43;29.60;;;4.70;99.90;;;;;;4953926;29;20461;-78
2021/12/20 00:27:28;;;;;;;36.23;29.57;;;4.60;99.90;;;;;;4953998;29;20489;-77
2021/12/20 00:29:54;;;;;;;34.27;27.47;;;4.70;99.90;;;;;;4954103;28;20888;-76
2021/12/20 00:32:21;;;;;;;35.60;28.70;;;4.80;99.90;;;;;;4954245;29;20488;-76
2021/12/20 00:34:49;;;;;;;39.13;29.20;;;4.80;99.90;;;;;;4956479;29;20465;-76
2021/12/20 00:42:46;;;;;;;39.80;29.33;;;4.60;99.90;;;;;;4969166;29;20479;-77
2021/12/20 00:45:14;;;;;;;38.90;30.63;;;4.70;99.90;;;;;;4963026;29;20488;-76
2021/12/20 00:47:41;;;;;;;36.87;29.70;;;4.70;99.90;;;;;;4964007;29;20508;-77
2021/12/20 00:50:12;;;;;;;37.13;28.70;;;4.60;99.90;;;;;;4955072;29;20464;-78
2021/12/20 00:52:39;;;;;;;35.80;29.00;;;4.60;99.90;;;;;;4953183;29;21003;-76
2021/12/20 00:55:07;;;;;;;40.67;28.80;;;4.60;99.90;;;;;;4953252;29;20460;-76
2021/12/20 00:57:34;;;;;;;38.73;29.13;;;4.60;99.90;;;;;;4953315;29;20452;-76
2021/12/20 01:00:01;;;;;;;38.00;28.97;;;4.60;99.90;;;;;;4953033;29;20456;-77
2021/12/20 01:02:29;;;;;;;32.40;28.90;;;4.60;99.90;;;;;;4953348;29;20460;-79
2021/12/20 01:04:55;;;;;;;35.50;29.00;;;4.60;99.90;;;;;;4953148;29;20449;-77
2021/12/20 01:07:23;;;;;;;34.20;27.80;;;4.60;99.90;;;;;;4953069;29;20509;-78
2021/12/20 01:09:51;;;;;;;36.00;28.40;;;4.60;99.90;;;;;;4953334;29;20852;-78
2021/12/20 01:12:20;;;;;;;32.60;27.03;;;4.60;99.90;;;;;;4952750;29;20456;-77
2021/12/20 01:14:47;;;;;;;36.63;28.77;;;4.60;99.90;;;;;;4953486;29;20508;-77
2021/12/20 01:17:14;;;;;;;32.93;26.57;;;4.60;99.90;;;;;;4953338;29;20454;-77
2021/12/20 01:19:41;;;;;;;37.67;29.33;;;4.50;99.90;;;;;;4953279;28;20457;-77
2021/12/20 01:22:08;;;;;;;37.63;29.67;;;4.50;99.90;;;;;;4952943;28;20511;-79
2021/12/20 01:24:36;;;;;;;35.43;31.40;;;4.60;99.90;;;;;;4952859;29;20459;-76
2021/12/20 01:27:03;;;;;;;38.40;31.60;;;4.40;99.90;;;;;;4953064;29;20496;-77
2021/12/20 01:29:30;;;;;;;40.33;29.50;;;4.40;99.90;;;;;;4954128;28;20511;-76
2021/12/20 01:31:56;;;;;;;37.13;28.77;;;4.40;99.90;;;;;;4959344;29;20456;-77
2021/12/20 01:34:23;;;;;;;36.90;29.60;;;4.50;99.90;;;;;;4959025;28;20456;-78
2021/12/20 01:36:50;;;;;;;35.47;28.97;;;4.60;99.90;;;;;;4959166;29;21007;-78
2021/12/20 01:39:17;;;;;;;32.67;28.13;;;4.60;99.90;;;;;;4959338;28;20520;-79
2021/12/20 01:41:46;;;;;;;43.07;28.07;;;4.60;99.90;;;;;;4959203;28;20456;-80
2021/12/20 01:44:13;;;;;;;38.20;28.97;;;4.60;99.90;;;;;;4959397;28;20452;-80
2021/12/20 01:46:40;;;;;;;36.50;28.20;;;4.50;99.90;;;;;;4959151;29;20488;-80
2021/12/20 01:49:11;;;;;;;35.17;27.80;;;4.50;99.90;;;;;;4959362;28;20463;-79
2021/12/20 01:51:49;;;;;;;36.77;28.30;;;4.40;99.90;;;;;;4959035;29;21074;-80
2021/12/20 01:54:16;;;;;;;36.80;28.97;;;4.30;99.90;;;;;;4959216;28;20955;-79
2021/12/20 01:56:45;;;;;;;45.30;30.33;;;4.30;99.90;;;;;;4959354;29;20449;-80
2021/12/20 01:59:12;;;;;;;35.50;29.30;;;4.30;99.90;;;;;;4958989;28;20465;-80
2021/12/20 02:01:41;;;;;;;41.00;29.40;;;4.30;99.90;;;;;;4959214;28;20939;-80
2021/12/20 02:04:08;;;;;;;35.93;29.53;;;4.30;99.90;;;;;;4959222;28;20460;-79
2021/12/20 02:06:38;;;;;;;44.87;29.33;;;4.30;99.90;;;;;;4958974;29;20739;-80
2021/12/20 02:09:07;;;;;;;36.97;29.00;;;4.20;99.90;;;;;;4961810;28;20550;-77
2021/12/20 02:11:34;;;;;;;40.30;30.60;;;4.20;99.90;;;;;;4962287;29;20456;-79
2021/12/20 02:14:03;;;;;;;38.50;28.20;;;4.20;99.90;;;;;;4959223;29;20459;-79
2021/12/20 02:16:30;;;;;;;39.30;28.40;;;4.20;99.90;;;;;;4958980;29;20457;-79
2021/12/20 02:18:57;;;;;;;36.50;27.17;;;4.20;99.90;;;;;;4959091;28;20460;-80
2021/12/20 02:21:25;;;;;;;34.40;27.97;;;4.20;99.90;;;;;;4958843;28;20465;-80
2021/12/20 02:23:52;;;;;;;39.13;28.47;;;4.10;99.90;;;;;;4958858;28;20508;-80
2021/12/20 02:26:19;;;;;;;35.13;27.90;;;4.10;99.90;;;;;;4958975;28;20919;-80
2021/12/20 02:28:49;;;;;;;40.60;27.40;;;4.20;99.90;;;;;;4958581;28;20805;-79
2021/12/20 02:37:04;;;;;;;32.37;27.33;;;4.20;99.90;;;;;;4959258;28;20539;-81
2021/12/20 02:39:31;;;;;;;36.40;28.80;;;4.20;99.90;;;;;;4958777;28;20989;-81
2021/12/20 02:41:58;;;;;;;37.47;26.87;;;4.30;99.90;;;;;;4956450;28;20460;-80
2021/12/20 02:44:27;;;;;;;34.17;27.60;;;4.40;99.90;;;;;;4955827;29;20452;-76
2021/12/20 02:47:05;;;;;;;37.33;28.50;;;4.30;99.90;;;;;;4955725;29;20483;-76
2021/12/20 02:49:33;;;;;;;30.23;27.17;;;4.30;99.90;;;;;;4955983;29;20448;-76
2021/12/20 02:52:05;;;;;;;34.23;27.93;;;4.40;99.90;;;;;;4955656;29;21050;-76
2021/12/20 02:54:31;;;;;;;34.73;29.43;;;4.40;99.90;;;;;;4955626;29;20867;-75
2021/12/20 02:56:58;;;;;;;35.17;28.13;;;4.30;99.90;;;;;;4955654;29;20456;-75
2021/12/20 02:59:25;;;;;;;37.80;29.80;;;4.30;99.90;;;;;;4955615;29;20548;-78
2021/12/20 03:01:54;;;;;;;35.80;30.00;;;4.30;99.90;;;;;;4955427;29;20460;-80
2021/12/20 03:04:21;;;;;;;35.57;28.50;;;4.30;99.90;;;;;;4955619;28;20457;-80
2021/12/20 03:06:50;;;;;;;36.60;29.07;;;4.30;99.90;;;;;;4955276;28;20560;-80
2021/12/20 03:09:21;;;;;;;39.30;28.80;;;4.30;99.90;;;;;;4955184;29;20515;-80
2021/12/20 03:11:51;;;;;;;39.07;30.00;;;4.40;99.90;;;;;;4955360;29;20512;-81
2021/12/20 03:14:22;;;;;;;38.17;29.97;;;4.40;99.90;;;;;;4955501;29;20457;-80
2021/12/20 03:16:49;;;;;;;37.57;28.13;;;4.40;99.90;;;;;;4955274;29;20453;-81
2021/12/20 03:19:16;;;;;;;33.53;28.40;;;4.50;99.90;;;;;;4955389;29;20884;-82
2021/12/20 03:21:43;;;;;;;30.90;27.50;;;4.60;99.90;;;;;;4955383;29;20456;-82
2021/12/20 03:24:09;;;;;;;32.37;28.20;;;4.70;99.90;;;;;;4954909;28;20478;-81
2021/12/20 03:26:37;;;;;;;30.63;27.73;;;4.80;99.90;;;;;;4954907;29;20492;-81
2021/12/20 03:29:05;;;;;;;33.43;27.60;;;4.90;99.90;;;;;;4955137;29;20463;-81
2021/12/20 03:31:32;;;;;;;34.73;29.93;;;4.90;99.90;;;;;;4954963;29;20462;-78
2021/12/20 03:33:59;;;;;;;34.73;29.67;;;5.00;99.90;;;;;;4954969;29;20447;-78
2021/12/20 03:36:26;;;;;;;34.27;30.60;;;4.90;99.90;;;;;;4954833;28;20449;-75
2021/12/20 03:38:53;;;;;;;35.17;31.53;;;5.00;99.90;;;;;;4954564;28;20463;-76
2021/12/20 03:41:20;;;;;;;36.63;32.73;;;5.00;99.90;;;;;;4954659;28;20948;-74
2021/12/20 03:43:48;;;;;;;38.53;34.67;;;5.10;99.90;;;;;;4954616;29;20453;-72
2021/12/20 03:46:15;;;;;;;39.63;35.80;;;5.10;99.90;;;;;;4954488;28;20854;-72
2021/12/20 03:48:42;;;;;;;45.37;40.90;;;5.10;99.90;;;;;;4956055;29;20452;-72
2021/12/20 03:51:08;;;;;;;47.97;43.20;;;5.10;99.90;;;;;;4954258;28;20500;-72
2021/12/20 03:53:36;;;;;;;46.27;41.77;;;5.10;99.90;;;;;;4953430;28;20445;-73
2021/12/20 03:56:05;;;;;;;46.10;41.60;;;4.80;99.90;;;;;;4954332;28;20452;-72
2021/12/20 03:58:33;;;;;;;45.50;40.97;;;4.70;99.90;;;;;;4954201;28;20463;-73
2021/12/20 04:01:04;;;;;;;45.13;40.87;;;4.70;99.90;;;;;;4954435;28;20453;-73
2021/12/20 04:03:34;;;;;;;45.03;40.57;;;4.60;99.90;;;;;;4954255;29;20453;-73
2021/12/20 04:06:01;;;;;;;47.10;42.23;;;4.50;99.90;;;;;;4954209;28;20486;-73
2021/12/20 04:08:27;;;;;;;46.53;41.53;;;4.50;99.90;;;;;;4954376;28;20487;-73
2021/12/20 04:10:54;;;;;;;43.97;40.07;;;4.40;99.90;;;;;;4953912;28;20453;-73
2021/12/20 04:13:21;;;;;;;45.37;41.03;;;4.30;99.90;;;;;;4953958;29;20865;-72
2021/12/20 04:15:48;;;;;;;46.30;41.37;;;4.30;99.90;;;;;;4954280;29;20504;-73
2021/12/20 04:18:16;;;;;;;47.53;42.93;;;4.20;99.90;;;;;;4954070;28;20453;-73
2021/12/20 04:20:42;;;;;;;46.00;41.30;;;4.20;99.90;;;;;;4953782;29;20456;-73
2021/12/20 04:23:09;;;;;;;46.53;41.80;;;4.20;99.90;;;;;;4953709;28;20905;-72
2021/12/20 04:25:36;;;;;;;44.93;40.80;;;4.20;99.90;;;;;;4953755;28;20515;-73
2021/12/20 04:28:02;;;;;;;44.73;40.20;;;4.10;99.90;;;;;;4953605;28;20535;-75
2021/12/20 04:30:31;;;;;;;45.07;40.33;;;4.20;99.90;;;;;;4953934;29;20468;-75
2021/12/20 04:32:58;;;;;;;44.73;40.17;;;4.10;99.90;;;;;;4953826;29;20456;-76
2021/12/20 04:35:26;;;;;;;41.07;36.83;;;4.10;99.90;;;;;;4953571;28;20536;-76
2021/12/20 04:37:54;;;;;;;42.80;38.77;;;4.10;99.90;;;;;;4953861;28;20832;-75
2021/12/20 04:40:22;;;;;;;42.27;38.00;;;4.10;99.90;;;;;;4953640;29;20538;-75
2021/12/20 04:42:51;;;;;;;46.80;40.50;;;4.10;99.90;;;;;;4953685;29;20479;-75
2021/12/20 04:45:17;;;;;;;47.10;42.23;;;4.10;99.90;;;;;;4953465;28;20468;-76
2021/12/20 04:47:44;;;;;;;43.73;39.47;;;4.10;99.90;;;;;;4953582;29;20527;-76
2021/12/20 04:50:11;;;;;;;46.23;38.53;;;4.10;99.90;;;;;;4953432;29;20469;-76
2021/12/20 04:52:41;;;;;;;44.87;38.97;;;4.10;99.90;;;;;;4953207;29;20876;-76
2021/12/20 04:55:09;;;;;;;43.40;39.30;;;4.20;99.90;;;;;;4953000;29;20869;-75
2021/12/20 04:57:36;;;;;;;44.97;39.70;;;4.10;99.90;;;;;;4953296;29;20445;-76
2021/12/20 05:00:03;;;;;;;48.23;40.93;;;4.20;99.90;;;;;;4954645;28;20456;-76
2021/12/20 05:02:30;;;;;;;48.80;39.93;;;4.20;99.90;;;;;;4953499;29;20464;-76
2021/12/20 05:04:57;;;;;;;42.27;37.57;;;4.20;99.90;;;;;;4966680;28;20452;-76
2021/12/20 05:07:26;;;;;;;44.40;39.70;;;4.20;99.90;;;;;;4974892;29;20553;-74
2021/12/20 05:09:58;;;;;;;43.50;37.90;;;4.30;99.90;;;;;;4975412;29;20456;-74
2021/12/20 05:12:25;;;;;;;44.53;40.13;;;4.20;99.90;;;;;;4957196;28;20446;-75
2021/12/20 05:14:51;;;;;;;42.83;38.43;;;4.20;99.90;;;;;;4961953;28;20456;-75
2021/12/20 05:17:18;;;;;;;42.33;37.73;;;4.20;99.90;;;;;;4963340;28;20518;-75
2021/12/20 05:19:45;;;;;;;43.57;39.37;;;4.20;99.90;;;;;;4959665;28;20445;-75
2021/12/20 05:22:12;;;;;;;41.63;37.57;;;4.30;99.90;;;;;;4961927;28;20617;-75
2021/12/20 05:24:40;;;;;;;46.53;39.80;;;4.30;99.90;;;;;;4961512;28;20456;-75
2021/12/20 05:27:08;;;;;;;43.40;38.73;;;4.30;99.90;;;;;;4960066;28;21038;-75
2021/12/20 05:29:35;;;;;;;41.57;37.47;;;4.30;99.90;;;;;;4960343;28;20457;-74
2021/12/20 05:32:04;;;;;;;42.50;38.03;;;4.30;99.90;;;;;;4960205;28;20450;-74
2021/12/20 05:34:31;;;;;;;43.50;37.60;;;4.20;99.90;;;;;;4958175;28;21002;-75
2021/12/20 05:36:58;;;;;;;42.20;37.90;;;4.20;99.90;;;;;;4961094;28;20845;-75
2021/12/20 05:39:24;;;;;;;41.83;37.40;;;4.20;99.90;;;;;;4962099;28;20455;-74
2021/12/20 05:41:51;;;;;;;40.67;36.57;;;4.30;99.90;;;;;;4960440;28;20544;-76
2021/12/20 05:44:19;;;;;;;45.93;39.63;;;4.20;99.90;;;;;;4960926;28;20444;-76
2021/12/20 05:46:46;;;;;;;45.50;40.53;;;4.30;99.90;;;;;;4961749;28;20683;-77
2021/12/20 05:49:13;;;;;;;46.20;40.40;;;4.20;99.90;;;;;;4965381;28;20452;-77
2021/12/20 05:51:40;;;;;;;44.70;39.83;;;4.10;99.90;;;;;;4960932;28;20534;-77
2021/12/20 05:54:07;;;;;;;45.60;40.67;;;4.20;99.90;;;;;;4962525;28;20535;-73
2021/12/20 05:56:34;;;;;;;46.53;38.00;;;4.10;99.90;;;;;;4960386;28;20887;-76
2021/12/20 05:59:00;;;;;;;45.27;40.50;;;4.10;99.90;;;;;;4960749;28;20436;-76
2021/12/20 06:01:28;;;;;;;44.30;39.60;;;4.10;99.90;;;;;;4962033;28;20439;-74
2021/12/20 06:03:55;;;;;;;40.30;36.27;;;4.00;99.90;;;;;;4960610;28;20455;-74
2021/12/20 06:06:22;;;;;;;44.40;39.43;;;4.10;99.90;;;;;;4960169;28;20502;-75
2021/12/20 06:08:49;;;;;;;41.37;37.10;;;4.10;99.90;;;;;;4959901;28;20838;-76
2021/12/20 06:11:15;;;;;;;51.00;38.60;;;4.10;99.90;;;;;;4961247;28;20446;-76
2021/12/20 06:13:42;;;;;;;40.30;35.20;;;4.10;99.90;;;;;;4961649;28;20952;-76
2021/12/20 06:16:09;;;;;;;45.83;38.30;;;4.10;99.90;;;;;;4959894;28;20797;-77
2021/12/20 06:18:37;;;;;;;43.03;37.53;;;4.00;99.90;;;;;;4965185;28;20457;-77
2021/12/20 06:21:03;;;;;;;45.80;37.43;;;4.10;99.90;;;;;;4965424;28;20448;-78
2021/12/20 06:23:30;;;;;;;47.77;39.47;;;4.10;99.90;;;;;;4960779;28;20483;-76
2021/12/20 06:25:57;;;;;;;47.60;39.73;;;4.10;99.90;;;;;;4964286;28;20457;-77
2021/12/20 06:28:23;;;;;;;47.83;37.00;;;4.00;99.90;;;;;;4965423;28;20549;-76
2021/12/20 06:30:50;;;;;;;42.93;38.33;;;4.00;99.90;;;;;;4960647;28;20455;-76
2021/12/20 06:33:17;;;;;;;41.10;36.90;;;4.00;99.90;;;;;;4964470;28;20450;-76
2021/12/20 06:35:46;;;;;;;40.67;36.47;;;4.10;99.90;;;;;;4964919;28;20737;-74
2021/12/20 06:38:18;;;;;;;41.73;37.13;;;4.10;99.90;;;;;;4956082;28;20486;-76
2021/12/20 06:40:45;;;;;;;44.90;36.70;;;4.10;99.90;;;;;;4955491;28;20512;-74
2021/12/20 06:43:12;;;;;;;42.03;35.77;;;4.10;99.90;;;;;;4955462;29;20511;-75
2021/12/20 06:45:39;;;;;;;48.20;35.93;;;4.10;99.90;;;;;;4955226;28;20464;-83
2021/12/20 06:48:06;;;;;;;38.80;34.73;;;4.20;99.90;;;;;;4956884;29;20496;-77
2021/12/20 06:50:33;;;;;;;40.03;34.47;;;4.10;99.90;;;;;;4955770;29;20463;-78
2021/12/20 06:53:02;;;;;;;40.00;35.67;;;4.10;99.90;;;;;;4955435;29;20542;-78
2021/12/20 06:55:29;;;;;;;44.60;37.10;;;4.20;99.90;;;;;;4955286;29;20492;-77
2021/12/20 06:57:56;;;;;;;43.00;36.30;;;4.10;99.90;;;;;;4955612;29;20453;-80
2021/12/20 07:00:23;;;;;;;39.00;34.73;;;4.10;99.90;;;;;;4955917;29;20471;-81
2021/12/20 07:02:50;;;;;;;38.83;34.70;;;4.00;99.90;;;;;;4955446;29;20523;-76
2021/12/20 07:05:17;;;;;;;36.00;32.10;;;4.10;99.90;;;;;;4955216;28;20459;-75
2021/12/20 07:07:44;;;;;;;40.63;34.33;;;4.10;99.90;;;;;;4958047;28;20551;-75
2021/12/20 07:10:12;;;;;;;37.40;33.40;;;4.10;99.90;;;;;;4962677;28;20859;-75
2021/12/20 07:12:39;;;;;;;38.00;33.90;;;4.10;99.90;;;;;;4960046;28;20448;-75
2021/12/20 07:15:10;;;;;;;36.13;31.90;;;4.10;99.90;;;;;;4963662;28;20436;-75
2021/12/20 07:17:36;;;;;;;38.87;34.63;;;4.10;99.90;;;;;;4970789;28;20852;-74
2021/12/20 07:20:04;;;;;;;38.50;34.60;;;4.10;99.90;;;;;;4974421;28;20460;-75
2021/12/20 07:22:31;;;;;;;42.10;33.57;;;4.20;99.90;;;;;;4977478;28;20543;-76
2021/12/20 07:24:57;;;;;;;38.90;33.60;;;4.20;99.90;;;;;;4977000;28;20510;-76
2021/12/20 07:27:26;;;;;;;38.50;33.03;;;4.20;99.90;;;;;;4973717;28;20511;-76
2021/12/20 07:29:52;;;;;;;38.00;33.57;;;4.20;99.90;;;;;;4974047;28;20448;-74
2021/12/20 07:32:19;;;;;;;37.07;32.43;;;4.30;99.90;;;;;;4974005;28;20459;-75
2021/12/20 07:34:46;;;;;;;37.67;31.67;;;4.30;99.90;;;;;;4973817;28;20848;-75
2021/12/20 07:37:12;;;;;;;36.13;31.60;;;4.30;99.90;;;;;;4973934;28;20452;-79
2021/12/20 07:39:39;;;;;;;36.90;32.77;;;4.30;99.90;;;;;;4974021;28;20457;-76
2021/12/20 07:42:07;;;;;;;36.63;32.17;;;4.40;99.90;;;;;;4973664;28;20463;-75
2021/12/20 07:44:35;;;;;;;42.20;32.27;;;4.40;99.90;;;;;;4973907;28;20471;-76
2021/12/20 07:47:02;;;;;;;38.27;32.73;;;4.40;99.90;;;;;;4973930;28;20458;-75
2021/12/20 07:49:29;;;;;;;36.07;31.00;;;4.40;99.90;;;;;;4973966;28;20943;-76
2021/12/20 07:51:56;;;;;;;36.87;31.67;;;4.50;99.90;;;;;;4973300;28;20483;-76
2021/12/20 07:54:23;;;;;;;35.53;31.07;;;4.50;99.90;;;;;;4973295;28;20479;-76
2021/12/20 07:56:50;;;;;;;34.40;30.63;;;4.50;99.90;;;;;;4973287;28;20864;-75
2021/12/20 07:59:16;;;;;;;34.70;30.07;;;4.50;99.90;;;;;;4973334;28;20447;-76
2021/12/20 08:01:44;;;;;;;37.77;31.37;;;4.50;99.90;;;;;;4973246;28;20813;-76
2021/12/20 08:04:11;;;;;;;37.63;30.83;;;4.60;99.90;;;;;;4973313;28;20467;-74
2021/12/20 08:06:38;;;;;;;33.37;29.57;;;4.60;99.90;;;;;;4973098;28;20460;-75
2021/12/20 08:09:05;;;;;;;33.43;29.50;;;4.70;99.90;;;;;;4972969;28;20501;-77
2021/12/20 08:11:33;;;;;;;37.00;30.70;;;4.80;99.90;;;;;;4972936;28;20455;-79
2021/12/20 08:14:00;;;;;;;35.37;29.73;;;4.80;99.90;;;;;;4972961;28;20460;-77
2021/12/20 08:16:26;;;;;;;32.80;29.30;;;5.00;99.90;;;;;;4972859;28;21074;-77
2021/12/20 08:18:54;;;;;;;32.83;29.50;;;5.00;99.90;;;;;;4972969;28;20509;-78
2021/12/20 08:21:21;;;;;;;35.63;31.83;;;4.90;99.90;;;;;;4972707;28;20463;-76
2021/12/20 08:23:49;;;;;;;31.57;28.63;;;5.00;99.90;;;;;;4972644;28;20507;-76
2021/12/20 08:26:16;;;;;;;32.30;28.90;;;4.90;99.90;;;;;;4972730;28;20464;-76
2021/12/20 08:28:42;;;;;;;33.47;29.63;;;4.90;99.90;;;;;;4972498;28;20491;-76
2021/12/20 08:31:10;;;;;;;33.27;29.67;;;5.00;99.90;;;;;;4971578;28;20746;-77
2021/12/20 08:33:38;;;;;;;31.60;28.10;;;5.10;99.90;;;;;;4972106;28;20461;-77
2021/12/20 08:36:09;;;;;;;31.03;27.70;;;5.00;99.90;;;;;;4972081;28;20741;-78
2021/12/20 08:38:36;;;;;;;34.83;29.20;;;5.10;99.90;;;;;;4971874;28;20464;-76
2021/12/20 08:41:04;;;;;;;33.13;29.53;;;5.10;99.90;;;;;;4972106;28;20534;-75
2021/12/20 08:43:31;;;;;;;32.70;29.23;;;5.10;99.90;;;;;;4971894;28;20464;-76
2021/12/20 08:45:59;;;;;;;32.53;29.07;;;5.10;99.90;;;;;;4972238;28;20449;-77
2021/12/20 08:48:26;;;;;;;33.33;29.80;;;5.20;99.90;;;;;;4971942;28;20498;-77
2021/12/20 08:50:53;;;;;;;32.10;28.77;;;5.20;99.90;;;;;;4972308;28;20465;-77
2021/12/20 08:53:21;;;;;;;32.20;29.00;;;5.20;99.90;;;;;;4971739;28;20480;-75
2021/12/20 08:55:48;;;;;;;35.17;31.40;;;5.20;99.90;;;;;;4971981;28;20456;-77
2021/12/20 08:58:15;;;;;;;34.30;30.60;;;5.30;99.90;;;;;;4971866;28;20448;-74
2021/12/20 09:00:42;;;;;;;30.80;27.90;;;5.30;99.90;;;;;;4971784;28;20454;-76
2021/12/20 09:03:08;;;;;;;34.03;29.50;;;5.30;99.90;;;;;;4972013;28;20453;-75
2021/12/20 09:05:36;;;;;;;35.50;31.00;;;5.30;99.90;;;;;;4971559;28;20464;-75
2021/12/20 09:08:06;;;;;;;30.90;27.73;;;5.50;99.90;;;;;;4971822;28;20779;-76
2021/12/20 09:10:35;;;;;;;30.37;27.37;;;5.60;99.90;;;;;;4971960;28;20866;-76
2021/12/20 09:13:03;;;;;;;34.47;28.27;;;5.60;99.90;;;;;;4971829;28;20462;-76
2021/12/20 09:15:30;;;;;;;31.80;28.53;;;5.80;99.90;;;;;;4972047;28;20456;-77
2021/12/20 09:17:57;;;;;;;34.00;27.37;;;5.90;99.90;;;;;;4971836;28;20448;-76
2021/12/20 09:20:25;;;;;;;33.57;30.40;;;6.20;99.90;;;;;;4971777;28;20456;-77
2021/12/20 09:22:56;;;;;;;32.30;26.13;;;6.20;99.90;;;;;;4972010;28;20542;-76
2021/12/20 09:25:26;;;;;;;30.70;27.63;;;6.30;99.90;;;;;;4971708;28;20455;-77
2021/12/20 09:27:56;;;;;;;30.33;27.13;;;6.50;99.90;;;;;;4971711;28;20506;-76
2021/12/20 09:30:24;;;;;;;31.17;27.97;;;6.50;99.90;;;;;;4971688;28;20828;-77
2021/12/20 09:32:51;;;;;;;31.13;27.93;;;6.40;99.90;;;;;;4971803;28;20471;-77
2021/12/20 09:35:19;;;;;;;34.87;28.77;;;6.40;99.90;;;;;;4971577;28;20460;-78
2021/12/20 09:37:50;;;;;;;32.90;27.57;;;6.40;99.90;;;;;;4969914;28;20861;-77
2021/12/20 09:40:16;;;;;;;30.83;27.83;;;6.30;99.90;;;;;;4971509;28;20460;-78
2021/12/20 09:42:49;;;;;;;32.47;28.90;;;6.20;99.90;;;;;;4972083;28;20455;-78
2021/12/20 09:45:20;;;;;;;31.73;26.87;;;6.20;99.90;;;;;;4981246;28;20431;-76
2021/12/20 09:47:47;;;;;;;30.40;27.53;;;6.20;99.90;;;;;;4996822;28;20426;-78
2021/12/20 09:50:14;;;;;;;30.70;27.50;;;6.60;99.90;;;;;;4996800;28;20446;-77
2021/12/20 09:52:44;;;;;;;30.87;27.50;;;6.70;99.90;;;;;;4990408;28;20904;-77
2021/12/20 09:55:12;;;;;;;32.57;27.70;;;6.60;99.90;;;;;;4980805;28;20536;-78
2021/12/20 09:57:41;;;;;;;30.33;26.80;;;6.80;99.90;;;;;;4981175;28;21065;-77
2021/12/20 10:01:12;;;;;;;33.03;29.50;;;7.10;99.90;;;;;;4978265;28;20510;-78
2021/12/20 10:03:40;;;;;;;29.57;26.63;;;7.50;99.90;;;;;;4960709;28;21031;-77
2021/12/20 10:06:07;;;;;;;32.67;27.90;;;7.70;99.90;;;;;;4975618;28;20459;-80
2021/12/20 10:08:36;;;;;;;29.77;26.73;;;7.80;99.90;;;;;;4975489;28;20482;-79
2021/12/20 10:11:05;;;;;;;31.13;28.07;;;8.00;99.90;;;;;;4975680;28;20473;-78
2021/12/20 10:13:35;;;;;;;28.90;25.80;;;8.40;99.90;;;;;;4975893;28;20467;-79
2021/12/20 10:16:03;;;;;;;31.03;26.80;;;8.70;99.90;;;;;;4975839;28;20451;-80
2021/12/20 10:18:35;;;;;;;30.67;25.97;;;8.80;99.90;;;;;;4975651;28;20451;-81
2021/12/20 10:21:03;;;;;;;27.10;24.60;;;8.80;99.90;;;;;;4974052;28;20829;-79
2021/12/20 10:23:32;;;;;;;29.87;26.63;;;8.90;99.90;;;;;;4975353;28;20526;-78
2021/12/20 10:26:01;;;;;;;28.83;25.90;;;8.70;99.90;;;;;;4975461;28;20936;-79
2021/12/20 10:28:32;;;;;;;28.50;25.53;;;8.50;99.90;;;;;;4975460;28;20483;-80
2021/12/20 10:31:01;;;;;;;29.30;26.37;;;8.40;99.90;;;;;;4975434;28;20455;-80
2021/12/20 10:33:28;;;;;;;29.77;26.77;;;8.00;99.90;;;;;;4975618;28;20456;-80
2021/12/20 10:35:57;;;;;;;31.10;27.50;;;7.60;99.90;;;;;;4975600;28;20488;-79
2021/12/20 10:38:29;;;;;;;29.80;26.83;;;7.30;99.90;;;;;;4975416;28;20451;-79
2021/12/20 10:40:58;;;;;;;32.17;27.57;;;7.20;99.90;;;;;;4975175;28;20456;-79
2021/12/20 10:43:27;;;;;;;31.43;26.60;;;7.10;99.90;;;;;;4975273;28;20807;-80
2021/12/20 10:45:56;;;;;;;27.37;24.57;;;7.10;99.90;;;;;;4975090;28;20460;-80
2021/12/20 10:48:30;;;;;;;29.60;26.60;;;7.10;99.90;;;;;;4975161;28;20452;-80
2021/12/20 10:50:57;;;;;;;31.10;27.83;;;7.20;99.90;;;;;;4975145;28;20802;-79
2021/12/20 10:53:26;;;;;;;31.03;27.90;;;7.20;99.90;;;;;;4974890;28;20546;-77
2021/12/20 10:55:56;;;;;;;28.20;25.30;;;7.80;99.90;;;;;;4974990;28;20510;-78
2021/12/20 10:58:30;;;;;;;26.07;23.63;;;9.30;99.90;;;;;;4974704;28;20878;-78
2021/12/20 11:01:22;;;;;;;25.70;23.30;;;11.60;99.90;;;;;;4974865;28;20522;-77
2021/12/20 11:03:58;;;;;;;25.53;23.20;;;13.40;99.90;;;;;;4974209;28;20459;-80
2021/12/20 11:06:37;;;;;;;26.10;23.40;;;14.40;98.20;;;;;;4974528;28;20467;-79
2021/12/20 11:09:15;;;;;;;24.40;22.23;;;14.60;97.80;;;;;;4974566;28;21018;-79
2021/12/20 11:11:48;;;;;;;24.23;22.23;;;15.40;95.70;;;;;;4974462;28;20459;-78
2021/12/20 11:14:17;;;;;;;20.57;18.83;;;16.50;94.00;;;;;;4974709;28;20461;-80
2021/12/20 11:16:46;;;;;;;19.70;18.33;;;17.40;90.40;;;;;;4974571;28;20934;-80
2021/12/20 11:19:16;;;;;;;22.93;20.90;;;16.40;90.20;;;;;;4974692;28;20440;-79
2021/12/20 11:21:58;;;;;;;22.17;20.27;;;16.20;91.10;;;;;;4974521;28;20514;-80
2021/12/20 11:24:30;;;;;;;21.37;19.33;;;16.70;89.40;;;;;;4972641;28;20981;-77
2021/12/20 11:26:58;;;;;;;21.57;19.87;;;16.70;89.10;;;;;;4974450;28;20836;-76
2021/12/20 11:29:26;;;;;;;20.80;19.20;;;16.40;89.10;;;;;;4974482;28;20546;-79
2021/12/20 11:31:55;;;;;;;21.70;20.00;;;16.30;90.20;;;;;;4974217;28;20463;-79
2021/12/20 11:34:22;;;;;;;20.97;19.27;;;16.80;89.50;;;;;;4974417;28;20458;-81
2021/12/20 11:36:49;;;;;;;21.60;19.97;;;17.20;85.90;;;;;;4974574;28;20455;-81
2021/12/20 11:39:16;;;;;;;21.10;19.43;;;15.30;88.30;;;;;;4974386;28;20452;-79
2021/12/20 11:41:44;;;;;;;20.30;18.70;;;12.90;92.30;;;;;;4974388;28;20851;-79
2021/12/20 11:44:15;;;;;;;20.27;18.50;;;11.40;96.30;;;;;;4974655;28;20965;-79
2021/12/20 11:46:56;;;;;;;21.43;19.50;;;10.70;98.50;;;;;;4974377;28;20493;-80
2021/12/20 11:49:24;;;;;;;19.80;17.90;;;10.00;99.90;;;;;;4974204;28;20491;-82
2021/12/20 11:51:59;;;;;;;19.30;17.70;;;9.40;99.90;;;;;;4974115;28;20494;-79
2021/12/20 11:54:54;;;;;;;19.80;18.13;;;8.80;99.90;;;;;;4973756;28;20453;-80
2021/12/20 11:57:41;;;;;;;18.53;16.80;;;8.40;99.90;;;;;;4974094;28;20454;-84
2021/12/20 12:00:22;;;;;;;21.83;19.73;;;8.20;99.90;;;;;;4973931;28;20476;-81
2021/12/20 12:02:51;;;;;;;20.30;18.50;;;8.20;99.90;;;;;;4973948;28;20510;-82
2021/12/20 12:05:30;;;;;;;21.67;19.50;;;8.10;99.90;;;;;;4973862;28;20444;-81
2021/12/20 12:08:22;;;;;;;22.90;20.60;;;8.20;99.90;;;;;;4973585;28;20878;-81
2021/12/20 12:10:49;;;;;;;23.77;21.27;;;8.00;99.90;;;;;;4973615;28;20543;-80
2021/12/20 12:13:18;;;;;;;26.30;23.33;;;7.80;99.90;;;;;;4973537;28;20459;-81
2021/12/20 12:15:52;;;;;;;29.33;24.33;;;7.60;99.90;;;;;;4972557;28;21013;-81
2021/12/20 12:18:19;;;;;;;26.57;22.67;;;7.70;99.90;;;;;;4973481;28;20458;-81
2021/12/20 12:20:49;;;;;;;24.63;22.13;;;7.70;99.90;;;;;;4973521;28;20457;-82
2021/12/20 12:23:21;;;;;;;24.37;21.97;;;7.70;99.90;;;;;;4973557;28;20511;-82
2021/12/20 12:25:51;;;;;;;23.70;21.30;;;7.40;99.90;;;;;;4973661;28;20476;-82
2021/12/20 12:28:21;;;;;;;26.23;22.20;;;7.30;99.90;;;;;;4973568;28;20459;-82
2021/12/20 12:31:00;;;;;;;26.57;23.97;;;7.20;99.90;;;;;;4973605;28;20492;-83
2021/12/20 12:33:36;;;;;;;24.57;22.37;;;7.20;99.90;;;;;;4974019;28;20850;-81
2021/12/20 12:36:11;;;;;;;25.10;22.60;;;7.20;99.90;;;;;;4942282;28;20477;-83
2021/12/20 12:38:50;;;;;;;26.90;23.00;;;7.20;99.90;;;;;;4933384;29;20969;-82
2021/12/20 12:41:23;;;;;;;25.00;22.40;;;7.10;99.90;;;;;;4932801;29;21068;-81
2021/12/20 12:44:18;;;;;;;24.70;22.30;;;7.00;99.90;;;;;;4934445;29;20464;-81
2021/12/20 12:47:08;;;;;;;25.33;22.80;;;7.00;99.90;;;;;;4932924;29;20451;-81
2021/12/20 12:49:45;;;;;;;25.37;22.57;;;6.80;99.90;;;;;;4932666;29;20500;-83
2021/12/20 12:52:36;;;;;;;25.13;22.73;;;6.60;99.90;;;;;;4932480;29;20489;-82
2021/12/20 12:55:07;;;;;;;24.73;22.23;;;6.60;99.90;;;;;;4934725;29;20465;-81